Flight Track Log - Related Links

Times and Time Zones

All times are in EDT time to prevent confusion due to time zone crossing. See the FFT926 flight status page for this flight to view local times or setup timezone preferences in your user account.

Time Position Orientation Groundspeed Altitude Reporting Facility
EDT Latitude Longitude Course Direction KTS MPH feet Rate Location/Type
Mon 07:13:54 AM 40.2667 -74.8333 217° Southwest 137 158 800  Level Philadelphia TRACON
Mon 07:14:54 AM 40.2333 -74.8667 217° Southwest 177 204 2,900 1,900 Climbing Philadelphia TRACON
Mon 07:15:54 AM 40.2167 -74.9500 255° West 249 287 4,600 2,069 Climbing Philadelphia TRACON
Mon 07:16:50 AM 40.2197 -75.0386 273° West 270 311 6,900 1,552 Climbing New York Center
Mon 07:17:50 AM 40.2206 -75.1311 271° West 267 307 7,600 1,650 Climbing New York Center
Mon 07:18:50 AM 40.2214 -75.2183 271° West 262 302 10,200 2,450 Climbing New York Center
Mon 07:19:50 AM 40.2208 -75.3406 270° West 298 343 12,500 1,400 Climbing New York Center
Mon 07:20:50 AM 40.2225 -75.4603 271° West 325 374 13,000 950 Climbing New York Center
Mon 07:21:50 AM 40.2322 -75.5778 276° West 332 382 14,400 1,850 Climbing New York Center
Mon 07:22:50 AM 40.2914 -75.6636 312° West 321 369 16,700 1,750 Climbing New York Center
Mon 07:23:50 AM 40.3561 -75.7608 311° West 346 398 17,900 1,850 Climbing New York Center
Mon 07:24:50 AM 40.4308 -75.8669 313° West 358 412 20,400 2,200 Climbing New York Center
Mon 07:25:50 AM 40.4561 -75.9997 284° West 363 418 22,300 1,600 Climbing New York Center
Mon 07:26:50 AM 40.4742 -76.1078 282° West 363 418 23,600 1,600 Climbing New York Center
Mon 07:27:50 AM 40.5017 -76.2817 282° West 389 448 25,500 2,100 Climbing New York Center
Mon 07:28:50 AM 40.5239 -76.4283 281° West 404 465 27,800 2,000 Climbing New York Center
Mon 07:29:50 AM 40.5461 -76.5750 281° West 404 465 29,500 1,650 Climbing New York Center
Mon 07:30:50 AM 40.5492 -76.7200 272° West 411 473 31,100 1,250 Climbing New York Center
Mon 07:31:50 AM 40.5564 -76.8681 274° West 411 473 32,000 450 Climbing New York Center
Mon 07:32:50 AM 40.5633 -77.0136 274° West 411 473 32,000  Level New York Center
Mon 07:33:50 AM 40.5678 -77.1617 272° West 411 473 32,000  Level New York Center
Mon 07:34:50 AM 40.5744 -77.3097 273° West 411 473 32,000  Level New York Center
Mon 07:37:03 AM 40.6456 -77.6097 287° West 407 468 32,000  Level Cleveland Center
Mon 07:38:05 AM 40.6772 -77.7494 287° West 406 467 32,000  Level Cleveland Center
Mon 07:39:06 AM 40.7111 -77.8889 288° West 404 465 32,000  Level Cleveland Center
Mon 07:40:08 AM 40.7439 -78.0278 287° West 403 464 32,000  Level Cleveland Center
Mon 07:41:10 AM 40.7831 -78.1958 287° West 403 464 32,000  Level Cleveland Center
Mon 07:42:12 AM 40.8286 -78.3303 294° West 401 461 32,000  Level Cleveland Center
Mon 07:43:13 AM 40.8764 -78.4511 298° West 402 463 32,000  Level Cleveland Center
Mon 07:44:15 AM 40.9158 -78.5858 291° West 400 460 32,000  Level Cleveland Center
Mon 07:45:17 AM 40.9569 -78.7528 288° West 401 461 32,000 -48 Level Cleveland Center
Mon 07:46:19 AM 40.9908 -78.8911 288° West 400 460 31,900 -290 Descending Cleveland Center
Mon 07:47:21 AM 41.0244 -79.0286 288° West 397 457 31,400 -488 Descending Cleveland Center
Mon 07:48:22 AM 41.0583 -79.1675 288° West 398 458 30,900 -488 Descending Cleveland Center
Mon 07:49:24 AM 41.0911 -79.3069 287° West 399 459 30,400 -435 Descending Cleveland Center
Mon 07:50:26 AM 41.1250 -79.4475 288° West 400 460 30,000 -339 Descending Cleveland Center
Mon 07:51:28 AM 41.1644 -79.6144 287° West 400 460 29,700 -339 Descending Cleveland Center
Mon 07:52:30 AM 41.1947 -79.7436 287° West 399 459 29,300 -871 Descending Cleveland Center
Mon 07:53:32 AM 41.2267 -79.8842 287° West 400 460 27,900 -1,790 Descending Cleveland Center
Mon 07:54:34 AM 41.2617 -80.0317 288° West 393 452 25,600 -1,902 Descending Cleveland Center
Mon 07:55:35 AM 41.2925 -80.1636 287° West 382 440 24,000 -1,268 Descending Cleveland Center
Mon 07:56:37 AM 41.3208 -80.2900 287° West 363 418 23,000 -1,452 Descending Cleveland Center
Mon 07:57:39 AM 41.3519 -80.4258 287° West 358 412 21,000 -1,839 Descending Cleveland Center
Mon 07:58:41 AM 41.3797 -80.5503 287° West 355 409 19,200 -1,790 Descending Cleveland Center
Mon 07:59:43 AM 41.4108 -80.6881 287° West 334 384 17,300 -1,694 Descending Cleveland Center
Mon 08:00:45 AM 41.4372 -80.8014 287° West 327 376 15,700 -1,597 Descending Cleveland Center
Mon 08:01:47 AM 41.4608 -80.9122 286° West 311 358 14,000 -1,632 Descending Cleveland Center
Mon 08:02:50 AM 41.4850 -81.0203 287° West 303 349 12,300 -1,786 Descending Cleveland Center
Mon 08:03:11 AM 41.4942 -81.0686 284° West 297 342 11,500 -1,672 Descending Cleveland Center
Mon 08:03:51 AM 41.4986 -81.1269 276° West 298 343 10,600 -1,343 Descending Cleveland Center
Mon 08:04:18 AM 41.4992 -81.1839 271° West 286 329 10,000 -581 Descending Cleveland Center
Mon 08:04:53 AM 41.4989 -81.2314 270° West 284 327 10,000 -667 Level Cleveland Center
Mon 08:05:12 AM 41.4975 -81.2756 268° West 263 303 9,400 -1,355 Descending Cleveland Center
Mon 08:05:55 AM 41.4972 -81.3278 270° West 266 306 8,600 -1,433 Descending Cleveland Center
Mon 08:06:19 AM 41.4947 -81.3783 266° West 257 296 7,800 -1,742 Descending Cleveland Center
Mon 08:06:57 AM 41.4942 -81.4381 269° West 260 299 6,800 -1,377 Descending Cleveland Center
Mon 08:07:20 AM 41.4928 -81.4703 267° West 249 287 6,400 -1,355 Descending Cleveland Center
Mon 08:07:59 AM 41.4928 -81.5286 270° West 249 287 5,400 -1,600 Descending Cleveland Center
Mon 08:08:20 AM 41.4944 -81.5711 273° West 258 297 4,800 -1,258 Descending Cleveland Center
Mon 08:09:01 AM 41.4914 -81.6222 265° West 249 287 4,100 -874 Descending Cleveland Center
Mon 08:10:03 AM 41.4897 -81.7031 268° West 229 264 3,300 -750 Descending Cleveland Center
Mon 08:10:21 AM 41.4861 -81.7317 260° West 192 221 3,100 -581 Descending Cleveland Center
Mon 08:11:05 AM 41.4686 -81.7578 228° Southwest 186 214 2,700 -689 Descending Cleveland Center
Mon 08:11:22 AM 41.4569 -81.7744 227° Southwest 138 159 2,400 -871 Descending Cleveland Center
Mon 08:12:07 AM 41.4403 -81.8019 231° Southwest 148 170 1,800 -806 Descending Cleveland Center
Mon 08:12:29 AM 41.4344 -81.8125 234° Southwest 119 137 1,500 -762 Descending Cleveland Center
Mon 08:13:10 AM 41.4186 -81.8358 228° Southwest 129 148 1,000 -732 Descending Cleveland Center
Mon 08:15:00 AM 41.4000 -81.8500 252° West  Level FlightAware Approximate

Login

Don't have an account? Register now (free) for customized features, flight alerts, and more!